Time;durP1;ratioP1;P1;durP2;ratioP2;P2;SDS_P1;SDS_P2;PMS_P1;PMS_P2;Temp;Humidity;BMP_temperature;BMP_pressure;BME280_temperature;BME280_humidity;BME280_pressure;Samples;Min_cycle;Max_cycle;Signal;HPM_P1;HPM_P2
2024/02/01 00:02:06;;;;;;;4.32;1.70;;;;;;;18.57;41.25;102396.06;5011474;28;20526;-69
2024/02/01 00:04:32;;;;;;;4.40;1.80;;;;;;;18.55;41.17;102389.16;5011402;28;20741;-69
2024/02/01 00:06:57;;;;;;;4.28;1.88;;;;;;;18.56;41.48;102391.72;5010822;28;20486;-69
2024/02/01 00:09:22;;;;;;;4.03;1.92;;;;;;;18.55;41.47;102402.34;5009896;28;20068;-70
2024/02/01 00:11:48;;;;;;;3.53;2.00;;;;;;;18.53;41.54;102402.44;5010011;28;20395;-69
2024/02/01 00:14:13;;;;;;;5.22;1.80;;;;;;;18.53;41.39;102396.31;5011643;28;20034;-70
2024/02/01 00:16:38;;;;;;;4.55;1.90;;;;;;;18.52;41.66;102394.63;5008308;28;20080;-69
2024/02/01 00:19:03;;;;;;;4.95;2.00;;;;;;;18.54;41.60;102405.97;5006855;28;20029;-70
2024/02/01 00:21:29;;;;;;;4.57;2.10;;;;;;;18.27;41.56;102369.66;5008000;28;20034;-69
2024/02/01 00:23:54;;;;;;;4.55;1.88;;;;;;;18.43;41.57;102396.03;5007260;28;20112;-73
2024/02/01 00:26:20;;;;;;;5.30;2.00;;;;;;;18.38;41.56;102383.09;5007040;28;20176;-70
2024/02/01 00:28:46;;;;;;;4.32;1.80;;;;;;;18.49;41.79;102403.59;5007667;28;20026;-70
2024/02/01 00:31:11;;;;;;;4.03;1.95;;;;;;;18.49;41.61;102398.31;5007011;28;20037;-71
2024/02/01 00:33:37;;;;;;;4.45;2.00;;;;;;;18.36;41.78;102387.63;5007551;28;20052;-72
2024/02/01 00:36:02;;;;;;;5.07;1.80;;;;;;;18.43;41.62;102396.03;5008277;28;20137;-70
2024/02/01 00:38:27;;;;;;;4.85;2.13;;;;;;;18.46;41.75;102399.31;5007906;28;20033;-71
2024/02/01 00:40:53;;;;;;;4.80;2.10;;;;;;;18.39;41.84;102395.34;5008092;28;20045;-71
2024/02/01 00:43:18;;;;;;;5.10;1.88;;;;;;;18.42;41.53;102404.88;5007439;28;20026;-70
2024/02/01 00:45:43;;;;;;;6.65;2.85;;;;;;;18.37;41.75;102396.38;5007514;28;20099;-70
2024/02/01 00:48:09;;;;;;;5.10;1.98;;;;;;;18.33;41.75;102389.59;5007606;28;20045;-71
2024/02/01 00:50:34;;;;;;;3.85;1.70;;;;;;;18.34;42.13;102383.34;5007180;28;20045;-70
2024/02/01 00:52:59;;;;;;;4.05;1.92;;;;;;;18.28;41.66;102374.00;5007515;28;20034;-71
2024/02/01 00:55:25;;;;;;;4.17;1.70;;;;;;;18.26;41.92;102363.53;5006950;28;20038;-70
2024/02/01 00:57:50;;;;;;;4.80;2.13;;;;;;;18.34;42.14;102376.31;5006297;28;20266;-71
2024/02/01 01:00:15;;;;;;;4.32;1.90;;;;;;;18.23;42.19;102366.38;5007047;28;20096;-70
2024/02/01 01:02:41;;;;;;;4.53;2.08;;;;;;;18.36;41.98;102394.66;5006341;28;20029;-69
2024/02/01 01:05:06;;;;;;;4.57;2.13;;;;;;;18.37;42.05;102389.28;5006674;28;20344;-70
2024/02/01 01:07:32;;;;;;;3.72;2.00;;;;;;;18.22;42.17;102363.81;5006881;28;20537;-70
2024/02/01 01:09:57;;;;;;;4.87;2.00;;;;;;;18.30;42.32;102382.69;5006949;28;20036;-70
2024/02/01 01:12:22;;;;;;;4.38;2.05;;;;;;;18.24;42.15;102373.31;5007042;28;20291;-72
2024/02/01 01:14:48;;;;;;;4.25;2.10;;;;;;;18.24;42.37;102359.28;5007239;28;20486;-72
2024/02/01 01:17:13;;;;;;;3.88;1.90;;;;;;;18.29;42.25;102375.69;5007283;28;20034;-70
2024/02/01 01:19:38;;;;;;;3.97;1.90;;;;;;;18.32;42.36;102388.72;5007254;28;20355;-70
2024/02/01 01:22:04;;;;;;;4.05;1.90;;;;;;;18.18;42.32;102357.00;5006864;28;20038;-70
2024/02/01 01:24:29;;;;;;;5.05;1.83;;;;;;;18.27;42.21;102380.22;5006798;28;20026;-72
2024/02/01 01:26:54;;;;;;;3.55;2.13;;;;;;;18.22;42.10;102363.81;5006907;28;20034;-70
2024/02/01 01:29:19;;;;;;;4.70;2.17;;;;;;;18.10;42.20;102347.75;5007049;28;20022;-71
2024/02/01 01:31:46;;;;;;;3.70;1.77;;;;;;;18.17;42.34;102361.44;5007172;28;20382;-71
2024/02/01 01:34:11;;;;;;;4.10;2.10;;;;;;;18.19;42.40;102366.63;5006802;28;20038;-71
2024/02/01 01:36:37;;;;;;;4.72;1.83;;;;;;;18.13;42.47;102360.75;5005786;28;20034;-70
2024/02/01 01:39:02;;;;;;;3.17;1.75;;;;;;;18.13;42.52;102358.13;5006306;28;20524;-71
2024/02/01 01:41:27;;;;;;;3.53;1.70;;;;;;;18.21;42.61;102376.13;5006640;28;20045;-70
2024/02/01 01:43:52;;;;;;;3.55;1.85;;;;;;;18.25;42.49;102380.31;5006357;28;20030;-70
2024/02/01 01:46:18;;;;;;;4.25;2.03;;;;;;;18.22;42.55;102380.47;5006022;28;20494;-70
2024/02/01 01:48:43;;;;;;;3.75;1.77;;;;;;;18.19;42.49;102374.53;5021275;28;20045;-70
2024/02/01 01:51:08;;;;;;;5.47;2.00;;;;;;;18.10;42.63;102358.31;5005511;28;20486;-71
2024/02/01 01:53:37;;;;;;;4.93;1.95;;;;;;;18.11;42.54;102361.78;5006845;28;20479;-71
2024/02/01 01:56:03;;;;;;;3.65;1.63;;;;;;;18.15;42.55;102367.72;5006518;28;20029;-72
2024/02/01 01:58:33;;;;;;;4.28;1.95;;;;;;;18.06;42.57;102367.31;5006499;28;20423;-70
2024/02/01 02:00:59;;;;;;;4.05;1.80;;;;;;;18.17;42.71;102376.44;5006756;28;20379;-71
2024/02/01 02:03:29;;;;;;;5.70;2.05;;;;;;;18.15;42.79;102381.78;5006153;28;20112;-70
2024/02/01 02:05:57;;;;;;;4.07;2.08;;;;;;;18.17;42.72;102384.34;5006250;28;20144;-72
2024/02/01 02:08:23;;;;;;;4.40;2.03;;;;;;;18.09;42.71;102375.06;5006635;28;20501;-70
2024/02/01 02:10:49;;;;;;;3.85;1.90;;;;;;;18.19;42.99;102390.38;5006203;28;20030;-71
2024/02/01 02:13:14;;;;;;;6.63;2.10;;;;;;;18.08;42.66;102375.16;5006477;28;20068;-70
2024/02/01 02:15:40;;;;;;;5.50;2.45;;;;;;;18.04;42.95;102370.97;5006007;28;20065;-72
2024/02/01 02:18:09;;;;;;;3.25;1.80;;;;;;;18.06;42.91;102374.38;5004864;28;20033;-73
2024/02/01 02:20:37;;;;;;;3.70;2.08;;;;;;;18.11;42.93;102388.16;5006526;28;20569;-71
2024/02/01 02:23:03;;;;;;;4.22;1.95;;;;;;;17.99;43.03;102368.63;5006446;28;20164;-72
2024/02/01 02:25:28;;;;;;;3.80;1.90;;;;;;;18.03;43.08;102379.84;5005918;28;20064;-70
2024/02/01 02:27:54;;;;;;;4.70;2.05;;;;;;;18.00;42.95;102372.09;5006648;28;20421;-71
2024/02/01 02:30:21;;;;;;;3.85;1.83;;;;;;;18.12;42.91;102401.28;5006273;28;20025;-70
2024/02/01 02:32:46;;;;;;;3.95;1.85;;;;;;;18.10;43.13;102397.00;5006914;28;20128;-71
2024/02/01 02:35:13;;;;;;;3.40;1.73;;;;;;;17.97;42.96;102373.09;5006357;28;20125;-71
2024/02/01 02:37:49;;;;;;;3.95;1.83;;;;;;;18.00;43.04;102382.66;5006503;28;20442;-71
2024/02/01 02:40:15;;;;;;;4.20;1.60;;;;;;;18.07;43.25;102397.19;5006316;28;20076;-69
2024/02/01 02:42:41;;;;;;;3.47;1.80;;;;;;;17.95;43.15;102381.09;5006393;28;20038;-70
2024/02/01 02:45:06;;;;;;;4.25;2.17;;;;;;;18.03;43.16;102390.41;5004736;28;20095;-70
2024/02/01 02:47:32;;;;;;;3.20;1.80;;;;;;;17.95;43.21;102380.25;5006427;28;20445;-71
2024/02/01 02:49:57;;;;;;;4.10;1.90;;;;;;;18.11;43.37;102407.47;5006486;28;20042;-71
2024/02/01 02:52:22;;;;;;;5.03;2.08;;;;;;;18.02;43.23;102391.31;5006373;28;20033;-69
2024/02/01 02:54:48;;;;;;;3.30;1.80;;;;;;;18.09;43.18;102409.34;5009022;28;20501;-70
2024/02/01 02:57:13;;;;;;;3.83;1.70;;;;;;;18.08;43.32;102414.72;5009976;28;20034;-71
2024/02/01 02:59:38;;;;;;;2.85;1.70;;;;;;;17.95;43.34;102396.09;5009314;28;20069;-70
2024/02/01 03:02:06;;;;;;;2.90;1.60;;;;;;;18.03;43.62;102412.34;5008790;28;20757;-70
2024/02/01 03:04:35;;;;;;;3.47;1.60;;;;;;;18.07;43.36;102408.59;5009581;28;20492;-70
2024/02/01 03:07:00;;;;;;;3.95;1.73;;;;;;;18.05;43.43;102421.00;5009480;28;20076;-70
2024/02/01 03:09:26;;;;;;;3.40;1.65;;;;;;;18.00;43.30;102406.38;5009533;28;20119;-71
2024/02/01 03:11:51;;;;;;;4.43;2.17;;;;;;;18.09;43.24;102427.81;5009302;28;20069;-71
2024/02/01 03:14:16;;;;;;;3.53;1.63;;;;;;;18.02;43.43;102415.91;5008412;28;20578;-70
2024/02/01 03:16:42;;;;;;;3.90;1.92;;;;;;;18.08;43.63;102434.03;5009107;28;20030;-72
2024/02/01 03:19:11;;;;;;;3.90;1.73;;;;;;;17.99;43.61;102413.47;5009397;28;20044;-71
2024/02/01 03:21:37;;;;;;;4.68;2.08;;;;;;;18.03;43.42;102424.69;5009062;28;20030;-71
2024/02/01 03:24:03;;;;;;;4.53;1.95;;;;;;;18.09;43.60;102429.63;5008521;28;20037;-72
2024/02/01 03:26:35;;;;;;;3.63;1.85;;;;;;;17.93;43.61;102409.38;5008704;28;20494;-72
2024/02/01 03:29:01;;;;;;;3.50;1.63;;;;;;;18.03;43.51;102432.59;5008705;28;20026;-71
2024/02/01 03:31:33;;;;;;;3.67;1.90;;;;;;;17.95;43.64;102419.84;5008090;28;20414;-71
2024/02/01 03:34:01;;;;;;;3.55;1.60;;;;;;;17.99;43.49;102423.16;5007005;28;20026;-70
2024/02/01 03:36:26;;;;;;;3.88;1.90;;;;;;;18.03;43.66;102441.34;5008852;28;20030;-69
2024/02/01 03:38:52;;;;;;;4.70;1.90;;;;;;;18.02;43.76;102444.91;5009033;28;20037;-72
2024/02/01 03:41:18;;;;;;;4.32;1.73;;;;;;;17.87;43.92;102422.84;5009000;28;20026;-69
2024/02/01 03:43:43;;;;;;;4.00;1.77;;;;;;;17.90;43.72;102428.00;5008650;28;20022;-71
2024/02/01 03:46:08;;;;;;;4.35;1.70;;;;;;;17.89;43.88;102423.66;5008767;28;20498;-70
2024/02/01 03:48:33;;;;;;;4.68;1.70;;;;;;;17.99;43.74;102442.47;5008532;28;20421;-69
2024/02/01 03:50:59;;;;;;;6.28;2.25;;;;;;;18.00;43.85;102448.59;5008457;28;20029;-71
2024/02/01 03:53:24;;;;;;;4.90;2.00;;;;;;;17.89;43.88;102430.72;5008390;28;20032;-72
2024/02/01 03:55:50;;;;;;;4.53;1.80;;;;;;;17.87;43.80;102424.66;5008415;28;20490;-68
2024/02/01 03:58:19;;;;;;;4.05;1.58;;;;;;;17.90;44.07;102438.56;5008811;28;20117;-69
2024/02/01 04:00:46;;;;;;;4.43;1.70;;;;;;;17.95;43.78;102457.59;5007151;28;20030;-71
2024/02/01 04:03:15;;;;;;;5.13;1.83;;;;;;;18.01;43.86;102471.38;5007056;28;20394;-71
2024/02/01 04:05:40;;;;;;;4.25;1.75;;;;;;;17.99;43.71;102479.41;5007634;28;20053;-71
2024/02/01 04:08:10;;;;;;;6.43;1.90;;;;;;;17.85;43.80;102456.38;5007329;28;20107;-71
2024/02/01 04:10:36;;;;;;;5.10;1.60;;;;;;;17.96;44.06;102479.59;5005149;28;20501;-70
2024/02/01 04:13:05;;;;;;;5.35;2.63;;;;;;;17.96;43.96;102490.13;5006609;28;20041;-70
2024/02/01 04:15:30;;;;;;;5.95;2.00;;;;;;;17.93;44.17;102499.06;5005925;28;20040;-70
2024/02/01 04:17:56;;;;;;;4.82;2.10;;;;;;;17.85;43.94;102497.72;5007172;28;20025;-70
2024/02/01 04:20:21;;;;;;;4.70;1.70;;;;;;;17.98;44.18;102527.81;5006180;28;20030;-69
2024/02/01 04:22:49;;;;;;;5.10;1.80;;;;;;;17.95;43.70;102530.63;5004975;28;20061;-70
2024/02/01 04:25:15;;;;;;;3.88;1.70;;;;;;;17.97;44.16;102551.66;5004632;28;20080;-70
2024/02/01 04:27:40;;;;;;;4.97;1.80;;;;;;;17.92;43.96;102552.72;5005224;28;20426;-70
2024/02/01 04:30:06;;;;;;;4.73;2.00;;;;;;;17.90;43.95;102546.69;5006203;28;20044;-69
2024/02/01 04:32:32;;;;;;;4.63;1.73;;;;;;;17.91;44.06;102552.81;5006311;28;20260;-71
2024/02/01 04:34:58;;;;;;;4.93;1.95;;;;;;;17.80;44.25;102537.56;5004593;28;20030;-70
2024/02/01 04:37:23;;;;;;;4.93;1.80;;;;;;;17.94;44.04;102571.13;5005303;28;20080;-70
2024/02/01 04:39:49;;;;;;;5.80;1.83;;;;;;;17.81;43.89;102556.84;5005917;28;20033;-70
2024/02/01 04:42:15;;;;;;;6.30;2.08;;;;;;;17.79;44.07;102550.81;5006197;28;20040;-71
2024/02/01 04:44:42;;;;;;;3.72;1.80;;;;;;;17.93;44.27;102580.81;5005804;28;20030;-69
2024/02/01 04:47:07;;;;;;;5.07;1.60;;;;;;;17.91;44.12;102601.16;5006262;28;20065;-71
2024/02/01 04:49:32;;;;;;;5.50;1.98;;;;;;;17.90;44.07;102598.59;5005965;28;20030;-71
2024/02/01 04:51:57;;;;;;;4.53;1.80;;;;;;;17.81;43.86;102593.78;5007085;28;20069;-71
2024/02/01 04:54:23;;;;;;;5.70;2.10;;;;;;;17.81;43.97;102585.88;5006391;28;20255;-71
2024/02/01 04:56:48;;;;;;;4.63;1.50;;;;;;;17.82;43.72;102606.88;5005909;28;20029;-71
2024/02/01 04:59:13;;;;;;;4.65;1.75;;;;;;;17.91;44.04;102619.63;5005528;28;20686;-69
2024/02/01 05:01:39;;;;;;;3.33;1.48;;;;;;;17.84;43.83;102607.66;5005664;28;20087;-71
2024/02/01 05:04:04;;;;;;;5.35;1.70;;;;;;;17.91;43.69;102635.44;5005332;28;20120;-69
2024/02/01 05:06:29;;;;;;;3.75;1.58;;;;;;;17.90;43.74;102638.16;5005639;28;20120;-71
2024/02/01 05:08:54;;;;;;;4.72;1.60;;;;;;;17.76;43.80;102626.50;5006307;28;20029;-70
2024/02/01 05:11:20;;;;;;;5.22;1.70;;;;;;;17.88;43.47;102646.16;5005467;28;20386;-71
2024/02/01 05:13:46;;;;;;;6.13;1.50;;;;;;;17.87;43.38;102639.13;5005765;28;20036;-68
2024/02/01 05:16:13;;;;;;;3.97;1.35;;;;;;;17.91;43.70;102658.31;5005274;28;20549;-70
2024/02/01 05:18:40;;;;;;;3.35;1.20;;;;;;;17.79;43.52;102649.22;5004946;28;20059;-70
2024/02/01 05:21:05;;;;;;;6.20;1.83;;;;;;;17.86;43.45;102669.06;5004896;28;20030;-70
2024/02/01 05:23:31;;;;;;;6.03;1.67;;;;;;;17.74;43.23;102654.75;5005690;28;20038;-70
2024/02/01 05:25:56;;;;;;;4.82;1.60;;;;;;;17.73;43.15;102652.19;5005723;28;20108;-71
2024/02/01 05:28:22;;;;;;;5.00;1.60;;;;;;;17.84;43.24;102668.31;5005995;28;20052;-71
2024/02/01 05:30:48;;;;;;;5.20;1.70;;;;;;;17.75;43.20;102652.94;5004917;28;20391;-69
2024/02/01 05:33:15;;;;;;;6.07;1.77;;;;;;;17.82;42.89;102669.34;5005865;28;20057;-69
2024/02/01 05:35:41;;;;;;;7.30;1.92;;;;;;;17.82;42.93;102669.34;5005026;28;20069;-70
2024/02/01 05:38:08;;;;;;;4.00;1.50;;;;;;;17.84;42.81;102675.38;5004810;28;20026;-71
2024/02/01 05:40:33;;;;;;;6.03;1.55;;;;;;;17.83;42.68;102668.38;5005038;28;20509;-70
2024/02/01 05:42:58;;;;;;;4.13;1.58;;;;;;;17.82;42.85;102658.78;5005021;28;20022;-69
2024/02/01 05:45:27;;;;;;;4.18;1.50;;;;;;;17.67;42.72;102650.69;5005273;28;20116;-70
2024/02/01 05:47:56;;;;;;;4.75;1.60;;;;;;;17.83;42.60;102678.94;5003910;28;20044;-71
2024/02/01 05:50:21;;;;;;;4.97;1.55;;;;;;;17.73;42.48;102670.63;5004209;28;20029;-71
2024/02/01 05:52:47;;;;;;;6.55;1.90;;;;;;;17.70;42.73;102682.19;5005828;28;20052;-70
2024/02/01 05:55:13;;;;;;;5.10;1.70;;;;;;;17.83;42.35;102713.22;5005071;28;20044;-69
2024/02/01 05:57:39;;;;;;;5.50;1.55;;;;;;;17.75;42.36;102705.69;5005321;28;20479;-69
2024/02/01 06:00:06;;;;;;;5.45;1.50;;;;;;;17.70;42.49;102699.81;5004489;28;20083;-69
2024/02/01 06:02:32;;;;;;;4.22;1.40;;;;;;;17.80;42.67;102732.72;5004472;28;20095;-69
2024/02/01 06:04:57;;;;;;;4.45;1.60;;;;;;;17.77;42.39;102722.31;5005147;28;20038;-68
2024/02/01 06:07:25;;;;;;;5.43;1.65;;;;;;;17.81;42.64;102728.28;5004962;28;20485;-69
2024/02/01 06:09:51;;;;;;;5.47;1.52;;;;;;;17.82;42.30;102735.28;5004693;28;20112;-70
2024/02/01 06:12:16;;;;;;;4.00;1.30;;;;;;;17.74;42.68;102719.81;5004665;28;20112;-71
2024/02/01 06:14:41;;;;;;;5.57;1.50;;;;;;;17.87;42.68;102744.66;5004557;28;20449;-69
2024/02/01 06:17:07;;;;;;;3.65;1.20;;;;;;;17.76;42.63;102729.34;5004151;28;20022;-69
2024/02/01 06:19:32;;;;;;;4.13;1.20;;;;;;;17.82;42.66;102751.09;5003807;28;20514;-69
2024/02/01 06:21:58;;;;;;;5.45;1.40;;;;;;;17.85;42.79;102750.91;5004167;28;20482;-71
2024/02/01 06:24:23;;;;;;;4.20;1.38;;;;;;;17.97;42.97;102773.25;5005368;28;20121;-70
2024/02/01 06:26:48;;;;;;;4.00;1.30;;;;;;;17.97;42.77;102765.31;5004202;28;20044;-70
2024/02/01 06:29:14;;;;;;;5.13;1.63;;;;;;;17.99;42.72;102764.31;5006943;28;21188;-71
2024/02/01 06:31:40;;;;;;;3.70;1.10;;;;;;;17.95;42.70;102758.31;5008888;28;20029;-71
2024/02/01 06:34:08;;;;;;;4.80;1.33;;;;;;;17.94;42.75;102753.13;5008573;28;20509;-70
2024/02/01 06:36:37;;;;;;;5.80;1.55;;;;;;;18.11;42.65;102790.06;5008081;28;20034;-69
2024/02/01 06:39:16;;;;;;;4.20;1.83;;;;;;;18.00;42.43;102763.38;5007655;28;20030;-69
2024/02/01 06:42:01;;;;;;;4.40;1.40;;;;;;;18.13;42.56;102785.59;5008782;28;20100;-71
2024/02/01 06:44:27;;;;;;;4.10;1.08;;;;;;;18.16;42.35;102792.47;5008467;28;20034;-70
2024/02/01 06:52:13;;;;;;;4.18;1.40;;;;;;;18.12;42.02;102790.94;5007901;28;20085;-70
2024/02/01 06:54:50;;;;;;;6.32;1.77;;;;;;;18.08;42.20;102797.28;5008295;28;20112;-69
2024/02/01 06:57:18;;;;;;;4.72;1.40;;;;;;;18.19;42.04;102809.94;5007262;28;20030;-70
2024/02/01 07:00:06;;;;;;;3.25;1.00;;;;;;;18.10;41.85;102793.66;5008221;28;20036;-70
2024/02/01 07:02:35;;;;;;;4.50;1.25;;;;;;;18.21;42.13;102816.84;5007113;28;20106;-70
2024/02/01 07:05:11;;;;;;;4.35;1.35;;;;;;;18.23;41.80;102819.41;5007438;28;20033;-70
2024/02/01 07:07:45;;;;;;;4.43;1.13;;;;;;;18.10;41.96;102803.34;5007091;28;20069;-71
2024/02/01 07:10:20;;;;;;;5.40;1.40;;;;;;;18.23;41.79;102824.69;5008310;28;20057;-72
2024/02/01 07:13:07;;;;;;;4.75;1.58;;;;;;;18.25;41.95;102831.59;5009515;28;20100;-71
2024/02/01 07:15:32;;;;;;;3.65;1.05;;;;;;;18.24;41.92;102839.59;5009172;28;20477;-71
2024/02/01 07:17:59;;;;;;;4.22;1.23;;;;;;;18.22;41.90;102847.59;5009152;28;20038;-72
2024/02/01 07:20:50;;;;;;;3.78;1.30;;;;;;;18.22;41.72;102838.81;5009142;28;20033;-72
2024/02/01 07:25:49;;;;;;;4.22;1.40;;;;;;;18.10;42.14;102832.38;5007672;28;20052;-71
2024/02/01 07:58:23;;;;;;;5.63;1.38;;;;;;;18.05;42.06;102888.00;5008832;28;20528;-71
2024/02/01 08:00:56;;;;;;;7.30;1.73;;;;;;;18.19;42.05;102915.50;5008680;28;20053;-70
2024/02/01 08:08:38;;;;;;;7.30;1.98;;;;;;;18.20;41.98;102910.16;5008229;28;20056;-72
2024/02/01 08:11:04;;;;;;;7.63;2.05;;;;;;;18.23;41.86;102920.56;5007839;28;20475;-73
2024/02/01 08:13:30;;;;;;;3.70;1.55;;;;;;;18.16;42.14;102907.75;5007978;28;20045;-72
2024/02/01 08:15:56;;;;;;;7.22;1.83;;;;;;;18.12;41.95;102907.91;5008074;28;20034;-74
2024/02/01 08:18:24;;;;;;;6.50;2.08;;;;;;;18.16;42.16;102918.31;5008354;28;20030;-73
2024/02/01 08:20:49;;;;;;;6.57;1.70;;;;;;;18.23;42.07;102930.25;5008019;28;20021;-72
2024/02/01 08:23:21;;;;;;;7.10;1.90;;;;;;;18.16;42.48;102927.06;5007775;28;20080;-71
2024/02/01 08:25:47;;;;;;;6.03;1.67;;;;;;;18.23;42.50;102952.25;5007562;28;20152;-72
2024/02/01 08:28:14;;;;;;;4.82;1.75;;;;;;;18.20;42.08;102940.94;5007846;28;20107;-72
2024/02/01 08:30:41;;;;;;;7.28;2.00;;;;;;;18.25;42.56;102953.00;5007557;28;20026;-74
2024/02/01 08:33:15;;;;;;;7.45;1.88;;;;;;;18.30;42.54;102968.63;5006572;28;20064;-72
2024/02/01 08:35:41;;;;;;;;;;;;;;;18.30;42.45;102966.84;5007617;28;20029;-71
2024/02/01 08:38:08;;;;;;;7.40;2.08;;;;;;;18.27;42.63;102955.56;5007137;28;20341;-72
2024/02/01 08:40:39;;;;;;;6.63;2.28;;;;;;;18.30;43.17;102963.34;5006226;28;20029;-71
2024/02/01 08:43:06;;;;;;;9.60;2.83;;;;;;;18.23;43.69;102948.72;5006860;28;20038;-71
2024/02/01 08:45:31;;;;;;;7.20;2.30;;;;;;;18.33;43.57;102962.34;5006524;28;20038;-73
2024/02/01 08:48:00;;;;;;;7.20;2.40;;;;;;;18.36;43.70;102968.34;5007110;28;20144;-74
2024/02/01 08:50:28;;;;;;;9.48;3.05;;;;;;;18.37;43.57;102971.81;5006784;28;20117;-73
2024/02/01 08:52:54;;;;;;;7.32;2.30;;;;;;;18.31;43.44;102959.78;5006740;28;20036;-72
2024/02/01 08:55:19;;;;;;;7.32;2.22;;;;;;;18.28;43.36;102960.78;5006511;28;20026;-73
2024/02/01 08:57:45;;;;;;;6.50;2.30;;;;;;;18.33;43.81;102959.72;5006745;28;20390;-73
2024/02/01 09:00:25;;;;;;;8.23;2.42;;;;;;;18.36;43.23;102972.75;5007137;28;20120;-71
2024/02/01 09:03:39;;;;;;;8.02;2.33;;;;;;;18.47;43.75;103000.34;5006371;28;20092;-73
2024/02/01 09:05:47;;;;;;;7.63;2.07;;;;;;;18.47;43.53;103010.91;5006175;28;20131;-73
2024/02/01 09:08:36;;;;;;;7.90;2.53;;;;;;;18.48;43.03;103007.34;5006365;28;20053;-75
2024/02/01 09:11:09;;;;;;;8.57;2.38;;;;;;;18.49;42.68;103026.69;5006493;28;20502;-70
2024/02/01 09:13:35;;;;;;;9.23;2.40;;;;;;;18.45;42.84;103025.09;5006358;28;20030;-69
2024/02/01 09:16:02;;;;;;;6.30;1.80;;;;;;;18.46;42.94;103025.03;5006659;28;20068;-73
2024/02/01 09:18:27;;;;;;;7.93;2.05;;;;;;;18.32;42.81;103009.00;5006688;28;20030;-72
2024/02/01 09:20:53;;;;;;;7.07;2.42;;;;;;;18.46;42.77;103029.47;5006636;28;20497;-74
2024/02/01 09:23:18;;;;;;;7.68;2.58;;;;;;;18.47;43.17;103033.81;5006876;28;20073;-75
2024/02/01 09:25:44;;;;;;;7.45;2.30;;;;;;;18.37;43.05;103011.41;5006492;28;20081;-73
2024/02/01 09:28:14;;;;;;;8.02;2.20;;;;;;;18.36;42.69;103007.94;5006128;28;20044;-70
2024/02/01 09:30:45;;;;;;;7.57;2.58;;;;;;;18.46;42.73;103025.03;5006230;28;20075;-71
2024/02/01 09:33:14;;;;;;;9.52;2.30;;;;;;;18.39;42.59;103013.06;5006526;28;20126;-76
2024/02/01 09:35:40;;;;;;;6.30;2.10;;;;;;;18.43;42.66;103021.69;5006309;28;20052;-71
2024/02/01 09:38:05;;;;;;;6.95;1.98;;;;;;;18.45;42.56;103023.34;5006228;28;20478;-74
2024/02/01 09:40:30;;;;;;;7.38;1.90;;;;;;;18.44;42.86;103023.41;5005713;28;20510;-73
2024/02/01 09:42:56;;;;;;;7.22;1.98;;;;;;;18.47;42.57;103034.66;5005971;28;20064;-71
2024/02/01 09:45:28;;;;;;;8.05;2.60;;;;;;;18.44;42.69;103037.47;5005730;28;20393;-71
2024/02/01 09:47:57;;;;;;;6.15;2.38;;;;;;;18.45;42.30;103043.56;5005697;28;20057;-74
2024/02/01 09:50:23;;;;;;;6.97;2.17;;;;;;;18.46;42.48;103042.66;5005750;28;20033;-69
2024/02/01 09:52:51;;;;;;;7.80;2.20;;;;;;;18.42;42.71;103041.97;5006146;28;20041;-68
2024/02/01 09:55:18;;;;;;;8.88;1.80;;;;;;;18.41;42.41;103037.59;5005847;28;20131;-69
2024/02/01 09:57:48;;;;;;;9.05;1.90;;;;;;;18.43;42.51;103056.84;5006267;28;20048;-70
2024/02/01 10:00:18;;;;;;;8.18;2.25;;;;;;;18.38;42.82;103050.09;5005960;28;20037;-69
2024/02/01 10:02:47;;;;;;;9.50;1.90;;;;;;;18.44;42.44;103071.78;5007160;28;20037;-71
2024/02/01 10:05:13;;;;;;;7.72;1.88;;;;;;;18.42;42.63;103059.56;5009905;28;20033;-70
2024/02/01 10:07:39;;;;;;;8.80;2.25;;;;;;;18.30;42.60;103047.81;5009405;28;20033;-70
2024/02/01 10:10:05;;;;;;;5.80;2.03;;;;;;;18.41;42.95;103073.72;5009972;28;20802;-71
2024/02/01 10:12:34;;;;;;;7.50;2.10;;;;;;;18.30;42.52;103059.22;5009584;28;20073;-69
2024/02/01 10:15:08;;;;;;;7.88;2.13;;;;;;;18.42;42.58;103076.28;5009667;28;20029;-71
2024/02/01 10:17:43;;;;;;;10.48;2.20;;;;;;;18.29;42.23;103054.88;5009684;28;20050;-69
2024/02/01 10:20:09;;;;;;;6.90;2.30;;;;;;;18.30;42.57;103053.09;5009018;28;20033;-69
2024/02/01 10:22:34;;;;;;;7.10;1.70;;;;;;;18.43;42.57;103088.53;5009127;28;20561;-69
2024/02/01 10:25:00;;;;;;;6.93;2.10;;;;;;;18.30;42.50;103071.56;5008134;28;20117;-70
2024/02/01 10:27:25;;;;;;;5.60;1.95;;;;;;;18.36;42.60;103094.16;5008844;28;20124;-70
2024/02/01 10:29:51;;;;;;;6.72;2.25;;;;;;;18.27;42.96;103080.47;5009278;28;20077;-70
2024/02/01 10:32:16;;;;;;;5.78;2.03;;;;;;;18.27;43.07;103077.00;5009045;28;20034;-70
2024/02/01 10:34:50;;;;;;;6.80;2.00;;;;;;;18.38;42.94;103076.50;5009028;28;20148;-69
2024/02/01 10:37:19;;;;;;;5.35;1.55;;;;;;;18.30;42.93;103064.50;5009277;28;20040;-70
2024/02/01 10:40:07;;;;;;;8.52;2.30;;;;;;;18.27;42.93;103061.16;5009051;28;20061;-71
2024/02/01 10:42:33;;;;;;;8.65;2.15;;;;;;;18.42;43.04;103094.75;5008939;28;20041;-70
2024/02/01 10:45:03;;;;;;;9.55;2.17;;;;;;;18.40;43.04;103093.13;5008419;28;20555;-70
2024/02/01 10:47:33;;;;;;;12.07;2.22;;;;;;;18.38;42.82;103092.34;5007903;28;20056;-71
2024/02/01 10:49:59;;;;;;;6.95;2.08;;;;;;;18.38;43.18;103092.34;5009741;28;20030;-70
2024/02/01 10:52:27;;;;;;;7.53;2.00;;;;;;;18.36;43.16;103089.78;5007430;28;20120;-70
2024/02/01 10:54:53;;;;;;;9.40;2.40;;;;;;;18.42;43.30;103112.38;5008332;28;20447;-70
2024/02/01 10:57:19;;;;;;;8.13;2.35;;;;;;;18.25;43.38;103073.59;5008471;28;20033;-70
2024/02/01 10:59:47;;;;;;;8.38;1.83;;;;;;;18.38;43.32;103084.41;5023425;28;20490;-69
2024/02/01 11:02:14;;;;;;;11.57;2.10;;;;;;;18.35;43.63;103074.84;5007367;28;20038;-72
2024/02/01 11:04:44;;;;;;;6.72;1.73;;;;;;;18.39;43.46;103087.00;5007998;28;20445;-71
2024/02/01 11:07:17;;;;;;;8.88;2.00;;;;;;;18.32;43.67;103069.72;5007961;28;20069;-73
2024/02/01 11:09:43;;;;;;;8.45;2.40;;;;;;;18.39;43.71;103080.84;5009216;28;20026;-72
2024/02/01 11:12:13;;;;;;;7.38;2.00;;;;;;;18.42;43.25;103086.84;5009593;28;20451;-72
2024/02/01 11:14:39;;;;;;;8.73;2.38;;;;;;;18.30;43.22;103068.94;5007641;28;20041;-74
2024/02/01 11:17:09;;;;;;;8.38;2.35;;;;;;;18.28;43.55;103065.53;5009563;28;20394;-74
2024/02/01 11:19:36;;;;;;;8.85;2.03;;;;;;;18.37;43.23;103080.91;5008474;28;20025;-73
2024/02/01 11:22:03;;;;;;;7.40;1.98;;;;;;;18.34;43.35;103080.19;5009531;28;20466;-73
2024/02/01 11:24:35;;;;;;;8.23;1.98;;;;;;;18.28;43.34;103060.25;5009580;28;20501;-73
2024/02/01 11:27:12;;;;;;;7.18;1.80;;;;;;;18.34;43.25;103078.44;5009044;28;20034;-73
2024/02/01 11:29:39;;;;;;;7.72;2.10;;;;;;;18.29;43.40;103068.09;5009248;28;20524;-73
2024/02/01 11:32:05;;;;;;;9.32;2.30;;;;;;;18.38;43.43;103090.53;5007638;28;20032;-71
2024/02/01 11:34:33;;;;;;;10.80;2.28;;;;;;;18.38;43.36;103087.91;5009093;28;20042;-68
2024/02/01 11:37:00;;;;;;;11.52;2.15;;;;;;;18.39;43.38;103094.91;5007401;28;20034;-71
2024/02/01 11:39:28;;;;;;;6.53;2.05;;;;;;;18.36;43.39;103099.44;5007785;28;20034;-69
2024/02/01 11:41:55;;;;;;;6.82;1.90;;;;;;;18.38;43.53;103097.63;5010506;28;20370;-69
2024/02/01 11:44:23;;;;;;;6.30;1.85;;;;;;;18.30;43.51;103090.06;5005297;28;20490;-69
2024/02/01 11:46:50;;;;;;;6.55;1.83;;;;;;;18.26;43.58;103075.28;5004496;28;20054;-70
2024/02/01 11:49:26;;;;;;;5.88;1.60;;;;;;;18.41;43.19;103094.84;5007276;28;20091;-71
2024/02/01 11:52:13;;;;;;;7.15;2.10;;;;;;;18.41;43.42;103092.19;5007558;28;20026;-70
2024/02/01 11:54:40;;;;;;;9.20;2.40;;;;;;;18.25;43.31;103077.06;5008444;28;20034;-70
2024/02/01 11:57:11;;;;;;;10.13;2.08;;;;;;;18.28;43.32;103073.44;5008874;28;20034;-70
2024/02/01 11:59:37;;;;;;;8.35;1.95;;;;;;;18.28;43.24;103076.06;5008593;28;20034;-70
2024/02/01 12:02:04;;;;;;;7.55;1.70;;;;;;;18.31;43.41;103078.56;5004909;28;20033;-70
2024/02/01 12:04:30;;;;;;;6.50;1.70;;;;;;;18.39;43.18;103089.63;5023313;28;20112;-70
2024/02/01 12:06:56;;;;;;;9.23;1.90;;;;;;;18.35;43.12;103080.13;5007977;28;20038;-70
2024/02/01 12:09:21;;;;;;;9.50;2.50;;;;;;;18.34;43.14;103075.78;5008547;28;20382;-70